createdAt,value
2023-03-19T00:00:53.621Z,11.77
2023-03-19T00:02:08.990Z,10.93
2023-03-19T00:03:24.919Z,11.00
2023-03-19T00:04:31.623Z,9.73
2023-03-19T00:05:35.337Z,12.88
2023-03-19T00:06:39.482Z,10.98
2023-03-19T00:07:43.716Z,10.45
2023-03-19T00:08:47.689Z,10.40
2023-03-19T00:09:51.206Z,10.25
2023-03-19T00:10:55.273Z,10.55
2023-03-19T00:11:59.179Z,9.35
2023-03-19T00:13:02.848Z,10.27
2023-03-19T00:14:07.164Z,10.35
2023-03-19T00:15:14.560Z,10.38
2023-03-19T00:16:18.488Z,11.02
2023-03-19T00:17:22.346Z,10.48
2023-03-19T00:18:26.121Z,9.60
2023-03-19T00:19:29.765Z,11.07
2023-03-19T00:20:33.347Z,12.20
2023-03-19T00:21:37.365Z,9.30
2023-03-19T00:22:41.213Z,11.82
2023-03-19T00:23:44.896Z,10.55
2023-03-19T00:24:48.745Z,9.45
2023-03-19T00:25:54.681Z,12.48
2023-03-19T00:26:58.387Z,12.18
2023-03-19T00:28:01.880Z,10.43
2023-03-19T00:29:09.820Z,10.02
2023-03-19T00:30:15.082Z,9.82
2023-03-19T00:31:18.789Z,9.77
2023-03-19T00:32:22.314Z,11.20
2023-03-19T00:33:26.776Z,11.38
2023-03-19T00:34:30.957Z,9.50
2023-03-19T00:35:35.040Z,10.63
2023-03-19T00:38:05.339Z,9.90
2023-03-19T00:39:09.292Z,10.93
2023-03-19T00:40:15.707Z,9.63
2023-03-19T00:41:20.869Z,10.50
2023-03-19T00:42:25.424Z,10.88
2023-03-19T00:43:29.172Z,10.73
2023-03-19T00:44:36.101Z,13.30
2023-03-19T00:45:49.345Z,9.75
2023-03-19T00:46:53.181Z,11.35
2023-03-19T00:47:57.882Z,11.20
2023-03-19T00:49:01.972Z,11.45
2023-03-19T00:50:11.516Z,11.02
2023-03-19T00:51:15.851Z,10.57
2023-03-19T00:52:21.000Z,8.88
2023-03-19T00:53:24.472Z,11.65
2023-03-19T00:54:28.702Z,10.43
2023-03-19T00:55:32.915Z,10.85
2023-03-19T00:56:38.401Z,9.13
2023-03-19T00:57:42.026Z,9.30
2023-03-19T00:58:47.255Z,10.05
2023-03-19T00:59:50.946Z,11.82
2023-03-19T01:00:56.379Z,11.38
2023-03-19T01:02:00.684Z,9.38
2023-03-19T01:03:06.526Z,10.95
2023-03-19T01:04:11.484Z,11.60
2023-03-19T01:05:15.223Z,9.70
2023-03-19T01:06:18.796Z,10.55
2023-03-19T01:07:30.906Z,10.20
2023-03-19T01:08:34.679Z,11.18
2023-03-19T01:09:38.102Z,10.73
2023-03-19T01:10:42.408Z,10.23
2023-03-19T01:11:46.366Z,10.95
2023-03-19T01:12:50.884Z,9.38
2023-03-19T01:13:54.405Z,8.57
2023-03-19T01:14:58.329Z,10.35
2023-03-19T01:16:02.333Z,12.63
2023-03-19T01:17:13.496Z,10.15
2023-03-19T01:18:17.447Z,11.45
2023-03-19T01:19:21.948Z,12.07
2023-03-19T01:20:27.677Z,10.13
2023-03-19T01:21:36.678Z,9.18
2023-03-19T01:22:51.249Z,11.45
2023-03-19T01:23:55.976Z,10.73
2023-03-19T01:24:59.649Z,10.73
2023-03-19T01:26:04.191Z,9.98
2023-03-19T01:27:13.193Z,10.85
2023-03-19T01:28:20.877Z,10.50
2023-03-19T01:29:24.536Z,10.30
2023-03-19T01:30:28.382Z,10.50
2023-03-19T01:31:32.653Z,8.95
2023-03-19T01:32:36.280Z,10.57
2023-03-19T01:33:40.294Z,12.65
2023-03-19T01:34:43.938Z,9.95
2023-03-19T01:35:51.439Z,9.30
2023-03-19T01:36:55.352Z,10.73
2023-03-19T01:37:58.858Z,10.50
2023-03-19T01:39:03.370Z,11.43
2023-03-19T01:40:12.562Z,10.35
2023-03-19T01:41:16.468Z,10.63
2023-03-19T01:42:21.893Z,11.52
2023-03-19T01:43:32.746Z,11.27
2023-03-19T01:44:39.831Z,11.75
2023-03-19T01:45:59.261Z,8.73
2023-03-19T01:47:43.027Z,8.10
2023-03-19T01:48:54.502Z,11.00
2023-03-19T01:49:59.968Z,10.43
2023-03-19T01:51:09.559Z,11.82
2023-03-19T01:52:16.085Z,11.43
2023-03-19T01:53:28.354Z,10.65
2023-03-19T01:54:34.216Z,8.27
2023-03-19T01:55:42.612Z,8.45
2023-03-19T01:56:53.066Z,9.43
2023-03-19T01:58:02.708Z,11.02
2023-03-19T01:59:38.194Z,9.98
2023-03-19T02:00:49.696Z,9.95
2023-03-19T02:02:13.638Z,10.82
2023-03-19T02:03:17.768Z,9.95
2023-03-19T02:04:34.216Z,9.98
2023-03-19T02:05:52.950Z,9.30
2023-03-19T02:07:09.641Z,9.65
2023-03-19T02:08:21.157Z,9.13
2023-03-19T02:09:30.756Z,10.10
2023-03-19T02:10:36.616Z,10.00
2023-03-19T02:11:42.129Z,10.68
2023-03-19T02:12:46.620Z,11.43
2023-03-19T02:13:50.183Z,11.30
2023-03-19T02:14:54.456Z,10.63
2023-03-19T02:16:02.707Z,10.25
2023-03-19T02:17:08.808Z,10.02
2023-03-19T02:18:13.701Z,10.32
2023-03-19T02:19:53.025Z,11.18
2023-03-19T02:21:14.734Z,9.40
2023-03-19T02:22:23.539Z,8.38
2023-03-19T02:24:01.926Z,10.65
2023-03-19T02:25:19.102Z,10.70
2023-03-19T02:26:28.904Z,11.02
2023-03-19T02:27:32.997Z,10.07
2023-03-19T02:28:42.614Z,10.07
2023-03-19T02:29:48.369Z,11.10
2023-03-19T02:30:54.186Z,9.80
2023-03-19T02:31:58.198Z,10.68
2023-03-19T02:33:01.929Z,11.20
2023-03-19T02:34:38.546Z,10.80
2023-03-19T02:35:50.296Z,9.27
2023-03-19T02:37:08.267Z,9.35
2023-03-19T02:38:13.615Z,9.90
2023-03-19T02:39:38.243Z,10.02
2023-03-19T02:41:09.473Z,8.98
2023-03-19T02:42:16.543Z,10.00
2023-03-19T02:43:22.565Z,10.02
2023-03-19T02:44:27.421Z,8.75
2023-03-19T02:45:32.285Z,10.02
2023-03-19T02:46:36.227Z,9.13
2023-03-19T02:47:41.087Z,9.10
2023-03-19T02:48:45.104Z,8.48
2023-03-19T02:49:49.324Z,9.38
2023-03-19T02:50:56.950Z,9.73
2023-03-19T02:52:04.165Z,10.40
2023-03-19T02:53:08.725Z,8.90
2023-03-19T02:54:12.699Z,10.63
2023-03-19T02:55:18.475Z,8.93
2023-03-19T02:56:22.314Z,11.13
2023-03-19T02:57:26.644Z,9.25
2023-03-19T02:58:30.424Z,8.27
2023-03-19T02:59:43.096Z,10.10
2023-03-19T03:02:53.389Z,10.38
2023-03-19T03:04:05.364Z,8.88
2023-03-19T03:05:10.149Z,10.55
2023-03-19T03:06:14.209Z,8.30
2023-03-19T03:07:19.341Z,9.13
2023-03-19T03:08:22.983Z,8.68
2023-03-19T03:09:27.263Z,10.02
2023-03-19T03:10:33.604Z,7.68
2023-03-19T03:11:37.368Z,9.57
2023-03-19T03:12:40.866Z,9.90
2023-03-19T03:13:44.789Z,9.20
2023-03-19T03:14:48.445Z,8.68
2023-03-19T03:15:53.636Z,10.55
2023-03-19T03:16:57.674Z,9.52
2023-03-19T03:18:01.433Z,9.82
2023-03-19T03:19:06.038Z,8.68
2023-03-19T03:20:11.592Z,8.38
2023-03-19T03:21:15.488Z,10.80
2023-03-19T03:22:19.211Z,8.57
2023-03-19T03:23:23.060Z,8.25
2023-03-19T03:24:27.888Z,8.40
2023-03-19T03:25:31.685Z,7.32
2023-03-19T03:26:38.758Z,8.20
2023-03-19T03:27:42.989Z,8.68
2023-03-19T03:28:46.568Z,9.88
2023-03-19T03:29:50.814Z,9.50
2023-03-19T03:31:01.215Z,8.80
2023-03-19T03:32:04.922Z,8.15
2023-03-19T03:33:08.629Z,8.05
2023-03-19T03:34:12.362Z,9.63
2023-03-19T03:35:21.878Z,8.57
2023-03-19T03:36:25.811Z,8.77
2023-03-19T03:37:30.390Z,9.43
2023-03-19T03:38:34.869Z,11.43
2023-03-19T03:39:38.552Z,7.85
2023-03-19T03:40:42.238Z,7.15
2023-03-19T03:41:46.546Z,9.25
2023-03-19T03:42:50.303Z,7.50
2023-03-19T03:43:54.110Z,10.50
2023-03-19T03:45:00.954Z,7.93
2023-03-19T03:46:05.279Z,9.18
2023-03-19T03:47:09.581Z,8.20
2023-03-19T03:48:14.915Z,7.40
2023-03-19T03:49:18.603Z,9.68
2023-03-19T03:50:22.304Z,9.00
2023-03-19T03:51:26.155Z,8.55
2023-03-19T03:52:31.512Z,8.55
2023-03-19T03:53:35.794Z,9.20
2023-03-19T03:54:40.176Z,9.25
2023-03-19T03:55:44.212Z,9.55
2023-03-19T03:56:47.988Z,7.45
2023-03-19T03:57:52.142Z,9.10
2023-03-19T03:58:55.840Z,8.95
2023-03-19T03:59:59.806Z,9.30
2023-03-19T04:01:04.246Z,7.22
2023-03-19T04:02:08.850Z,8.35
2023-03-19T04:03:12.762Z,8.88
2023-03-19T04:04:16.968Z,7.93
2023-03-19T04:05:20.605Z,8.88
2023-03-19T04:06:25.735Z,8.30
2023-03-19T04:07:29.884Z,8.52
2023-03-19T04:08:34.109Z,7.78
2023-03-19T04:09:37.915Z,8.15
2023-03-19T04:10:43.856Z,9.10
2023-03-19T04:11:51.287Z,9.35
2023-03-19T04:12:55.234Z,9.82
2023-03-19T04:14:01.139Z,9.38
2023-03-19T04:15:11.104Z,8.57
2023-03-19T04:16:15.654Z,9.57
2023-03-19T04:17:19.212Z,9.25
2023-03-19T04:18:22.903Z,7.85
2023-03-19T04:19:27.273Z,9.40
2023-03-19T04:20:31.499Z,7.72
2023-03-19T04:21:35.441Z,7.95
2023-03-19T04:22:39.173Z,7.63
2023-03-19T04:23:42.944Z,6.68
2023-03-19T04:24:49.470Z,8.13
2023-03-19T04:25:53.040Z,8.80
2023-03-19T04:26:56.860Z,7.25
2023-03-19T04:28:00.498Z,9.52
2023-03-19T04:29:04.884Z,7.43
2023-03-19T04:30:11.572Z,7.78
2023-03-19T04:31:15.589Z,9.45
2023-03-19T04:32:19.164Z,8.40
2023-03-19T04:33:23.469Z,9.45
2023-03-19T04:34:27.192Z,9.70
2023-03-19T04:35:31.916Z,7.82
2023-03-19T04:36:35.954Z,8.15
2023-03-19T04:37:40.088Z,9.27
2023-03-19T04:38:43.695Z,9.48
2023-03-19T04:39:47.679Z,9.45
2023-03-19T04:40:51.958Z,8.85
2023-03-19T04:41:56.756Z,8.48
2023-03-19T04:43:00.245Z,9.82
2023-03-19T04:44:03.855Z,9.02
2023-03-19T04:45:08.755Z,8.45
2023-03-19T04:46:12.367Z,8.10
2023-03-19T04:47:16.081Z,7.95
2023-03-19T04:48:19.934Z,8.52
2023-03-19T04:49:24.687Z,8.70
2023-03-19T04:50:29.350Z,8.10
2023-03-19T04:51:33.342Z,7.80
2023-03-19T04:52:39.772Z,9.20
2023-03-19T04:53:43.667Z,7.82
2023-03-19T04:54:47.371Z,6.93
2023-03-19T04:55:51.490Z,8.57
2023-03-19T04:56:55.207Z,8.43
2023-03-19T04:57:58.698Z,6.85
2023-03-19T04:59:02.204Z,8.02
2023-03-19T05:00:07.030Z,7.55
2023-03-19T05:01:10.672Z,8.60
2023-03-19T05:02:14.252Z,7.15
2023-03-19T05:03:17.888Z,7.68
2023-03-19T05:04:21.474Z,7.30
2023-03-19T05:05:25.343Z,7.97
2023-03-19T05:06:29.090Z,7.97
2023-03-19T05:07:33.581Z,7.15
2023-03-19T05:08:37.506Z,7.95
2023-03-19T05:09:43.354Z,7.53
2023-03-19T05:10:47.344Z,6.10
2023-03-19T05:11:51.778Z,8.27
2023-03-19T05:12:55.839Z,8.73
2023-03-19T05:13:59.759Z,8.20
2023-03-19T05:15:05.410Z,6.95
2023-03-19T05:16:09.648Z,8.95
2023-03-19T05:17:15.340Z,7.07
2023-03-19T05:18:19.134Z,7.75
2023-03-19T05:19:23.392Z,9.07
2023-03-19T05:20:27.797Z,6.88
2023-03-19T05:21:31.647Z,8.38
2023-03-19T05:22:35.395Z,9.48
2023-03-19T05:23:40.358Z,8.05
2023-03-19T05:24:44.241Z,7.57
2023-03-19T05:25:48.738Z,9.25
2023-03-19T05:26:52.626Z,8.50
2023-03-19T05:27:56.695Z,8.15
2023-03-19T05:29:00.603Z,8.15
2023-03-19T05:30:06.546Z,7.53
2023-03-19T05:31:11.012Z,6.47
2023-03-19T05:32:15.993Z,7.25
2023-03-19T05:33:19.928Z,7.97
2023-03-19T05:34:23.704Z,7.20
2023-03-19T05:35:29.615Z,7.53
2023-03-19T05:36:33.728Z,8.10
2023-03-19T05:37:37.272Z,7.55
2023-03-19T05:38:41.343Z,7.45
2023-03-19T05:39:45.213Z,8.48
2023-03-19T05:40:48.922Z,8.30
2023-03-19T05:41:53.207Z,8.35
2023-03-19T05:42:56.694Z,7.78
2023-03-19T05:44:00.986Z,6.88
2023-03-19T05:45:05.797Z,7.35
2023-03-19T05:46:09.417Z,7.13
2023-03-19T05:47:13.498Z,8.38
2023-03-19T05:48:17.666Z,8.57
2023-03-19T05:49:22.241Z,8.70
2023-03-19T05:50:25.932Z,7.90
2023-03-19T05:51:29.537Z,7.22
2023-03-19T05:52:33.902Z,7.05
2023-03-19T05:53:38.201Z,8.50
2023-03-19T05:54:41.804Z,6.82
2023-03-19T05:55:45.869Z,8.57
2023-03-19T05:56:49.617Z,9.80
2023-03-19T05:57:53.936Z,7.45
2023-03-19T05:58:57.479Z,7.88
2023-03-19T06:00:01.923Z,7.20
2023-03-19T06:01:05.718Z,7.78
2023-03-19T06:02:09.957Z,6.45
2023-03-19T06:03:14.070Z,9.15
2023-03-19T06:04:17.821Z,8.27
2023-03-19T06:05:22.353Z,7.45
2023-03-19T06:06:27.062Z,7.70
2023-03-19T06:07:31.586Z,7.88
2023-03-19T06:08:35.948Z,7.45
2023-03-19T06:09:41.205Z,8.52
2023-03-19T06:10:45.633Z,8.65
2023-03-19T06:11:49.348Z,8.82
2023-03-19T06:12:53.452Z,8.80
2023-03-19T06:13:57.249Z,7.57
2023-03-19T06:15:01.757Z,9.45
2023-03-19T06:16:06.308Z,9.05
2023-03-19T06:17:09.978Z,9.57
2023-03-19T06:18:13.778Z,9.85
2023-03-19T06:19:17.704Z,10.13
2023-03-19T06:20:22.010Z,9.55
2023-03-19T06:21:29.698Z,10.30
2023-03-19T06:22:33.336Z,8.32
2023-03-19T06:23:36.994Z,8.45
2023-03-19T06:24:41.685Z,10.25
2023-03-19T06:25:45.673Z,8.88
2023-03-19T06:26:49.308Z,7.97
2023-03-19T06:27:52.991Z,9.27
2023-03-19T06:28:56.765Z,10.60
2023-03-19T06:30:00.969Z,10.38
2023-03-19T06:31:04.900Z,9.25
2023-03-19T06:32:09.828Z,7.50
2023-03-19T06:33:14.583Z,9.90
2023-03-19T06:34:18.444Z,8.50
2023-03-19T06:35:22.570Z,7.63
2023-03-19T06:36:26.361Z,10.45
2023-03-19T06:37:30.521Z,8.40
2023-03-19T06:38:36.148Z,8.70
2023-03-19T06:39:39.904Z,11.80
2023-03-19T06:40:43.732Z,11.15
2023-03-19T06:41:47.404Z,9.88
2023-03-19T06:42:51.290Z,11.43
2023-03-19T06:43:55.551Z,10.30
2023-03-19T06:44:59.042Z,10.30
2023-03-19T06:46:08.929Z,11.38
2023-03-19T06:47:15.859Z,9.65
2023-03-19T06:48:19.638Z,10.43
2023-03-19T06:49:23.852Z,11.50
2023-03-19T06:50:27.789Z,10.45
2023-03-19T06:51:31.765Z,10.95
2023-03-19T06:52:35.779Z,10.45
2023-03-19T06:53:39.887Z,10.55
2023-03-19T06:54:43.408Z,11.00
2023-03-19T06:55:47.784Z,13.60
2023-03-19T06:56:51.619Z,10.85
2023-03-19T06:57:55.037Z,10.38
2023-03-19T06:58:58.496Z,11.65
2023-03-19T07:00:02.717Z,10.70
2023-03-19T07:01:06.263Z,11.38
2023-03-19T07:02:13.045Z,12.10
2023-03-19T07:03:16.729Z,11.63
2023-03-19T07:04:20.614Z,11.13
2023-03-19T07:05:24.603Z,13.85
2023-03-19T07:06:28.222Z,11.07
2023-03-19T07:07:32.667Z,10.93
2023-03-19T07:08:36.398Z,11.57
2023-03-19T07:09:40.790Z,11.23
2023-03-19T07:10:47.776Z,10.13
2023-03-19T07:11:51.299Z,12.13
2023-03-19T07:12:55.347Z,10.98
2023-03-19T07:13:58.951Z,11.30
2023-03-19T07:15:02.676Z,11.57
2023-03-19T07:16:07.318Z,11.32
2023-03-19T07:17:11.790Z,11.77
2023-03-19T07:18:15.802Z,10.70
2023-03-19T07:19:19.402Z,9.32
2023-03-19T07:20:23.084Z,10.30
2023-03-19T07:21:27.157Z,11.50
2023-03-19T07:22:31.552Z,11.02
2023-03-19T07:23:36.280Z,12.82
2023-03-19T07:24:39.961Z,14.35
2023-03-19T07:25:43.801Z,17.38
2023-03-19T07:26:48.241Z,13.20
2023-03-19T07:27:54.817Z,11.68
2023-03-19T07:28:59.884Z,11.52
2023-03-19T07:30:03.750Z,11.52
2023-03-19T07:31:07.308Z,10.90
2023-03-19T07:32:12.605Z,11.07
2023-03-19T07:33:16.800Z,10.63
2023-03-19T07:34:20.885Z,9.52
2023-03-19T07:35:24.851Z,9.73
2023-03-19T07:36:29.293Z,9.15
2023-03-19T07:37:33.518Z,10.00
2023-03-19T07:38:37.224Z,8.48
2023-03-19T07:39:42.133Z,9.75
2023-03-19T07:41:01.029Z,8.70
2023-03-19T07:42:06.941Z,9.82
2023-03-19T07:43:10.841Z,10.25
2023-03-19T07:44:16.582Z,8.95
2023-03-19T07:45:20.648Z,9.98
2023-03-19T07:46:24.350Z,9.45
2023-03-19T07:47:29.624Z,8.23
2023-03-19T07:48:33.502Z,9.57
2023-03-19T07:49:37.604Z,9.48
2023-03-19T07:50:41.322Z,9.15
2023-03-19T07:51:44.958Z,8.65
2023-03-19T07:52:51.692Z,9.63
2023-03-19T07:53:55.859Z,9.88
2023-03-19T07:54:59.433Z,8.18
2023-03-19T07:56:03.233Z,9.15
2023-03-19T07:57:07.117Z,8.27
2023-03-19T07:58:11.709Z,8.25
2023-03-19T07:59:15.409Z,7.68
2023-03-19T08:00:19.663Z,8.15
2023-03-19T08:01:23.816Z,6.70
2023-03-19T08:02:33.342Z,8.10
2023-03-19T08:03:37.250Z,7.75
2023-03-19T08:04:42.248Z,7.05
2023-03-19T08:05:51.505Z,8.20
2023-03-19T08:06:55.534Z,7.10
2023-03-19T08:07:59.341Z,7.25
2023-03-19T08:09:02.905Z,7.82
2023-03-19T08:10:08.154Z,7.00
2023-03-19T08:11:11.855Z,6.63
2023-03-19T08:12:16.390Z,6.65
2023-03-19T08:13:20.560Z,6.82
2023-03-19T08:14:24.304Z,7.07
2023-03-19T08:15:28.725Z,6.95
2023-03-19T08:16:33.185Z,7.25
2023-03-19T08:17:39.152Z,7.13
2023-03-19T08:18:42.767Z,5.65
2023-03-19T08:19:46.968Z,7.32
2023-03-19T08:20:50.936Z,6.55
2023-03-19T08:21:55.077Z,6.75
2023-03-19T08:22:59.078Z,6.93
2023-03-19T08:24:04.948Z,6.00
2023-03-19T08:25:10.075Z,7.50
2023-03-19T08:26:13.656Z,5.78
2023-03-19T08:27:20.786Z,6.47
2023-03-19T08:28:24.563Z,7.10
2023-03-19T08:29:28.980Z,6.10
2023-03-19T08:30:33.348Z,7.00
2023-03-19T08:31:37.410Z,5.53
2023-03-19T08:32:41.484Z,6.20
2023-03-19T08:33:45.286Z,5.70
2023-03-19T08:34:49.876Z,5.88
2023-03-19T08:35:53.620Z,4.65
2023-03-19T08:36:57.270Z,5.00
2023-03-19T08:38:00.981Z,4.57
2023-03-19T08:39:05.619Z,4.90
2023-03-19T08:40:10.216Z,5.55
2023-03-19T08:41:14.029Z,4.30
2023-03-19T08:42:20.542Z,4.75
2023-03-19T08:43:25.209Z,3.70
2023-03-19T08:44:31.954Z,4.35
2023-03-19T08:45:35.648Z,4.10
2023-03-19T08:46:40.047Z,4.45
2023-03-19T08:47:44.692Z,4.43
2023-03-19T08:48:48.565Z,4.72
2023-03-19T08:49:53.642Z,5.32
2023-03-19T08:51:01.984Z,3.33
2023-03-19T08:52:09.383Z,3.83
2023-03-19T08:53:13.529Z,4.40
2023-03-19T08:54:18.125Z,3.78
2023-03-19T08:55:22.302Z,4.07
2023-03-19T08:56:26.414Z,3.88
2023-03-19T08:57:35.030Z,3.65
2023-03-19T08:58:41.703Z,3.75
2023-03-19T08:59:46.059Z,4.35
2023-03-19T09:00:51.057Z,4.55
2023-03-19T09:01:55.333Z,3.88
2023-03-19T09:03:01.844Z,4.15
2023-03-19T09:04:06.367Z,4.35
2023-03-19T09:05:10.260Z,3.83
2023-03-19T09:06:14.901Z,3.85
2023-03-19T09:07:19.088Z,3.63
2023-03-19T09:08:22.722Z,3.42
2023-03-19T09:09:26.870Z,3.55
2023-03-19T09:10:30.711Z,3.90
2023-03-19T09:11:34.572Z,3.80
2023-03-19T09:12:39.112Z,4.35
2023-03-19T09:13:43.288Z,3.75
2023-03-19T09:14:47.498Z,3.70
2023-03-19T09:15:53.075Z,3.22
2023-03-19T09:16:57.681Z,3.75
2023-03-19T09:18:04.758Z,3.22
2023-03-19T09:19:09.657Z,3.08
2023-03-19T09:20:14.370Z,3.50
2023-03-19T09:21:18.799Z,4.13
2023-03-19T09:22:25.412Z,3.92
2023-03-19T09:23:29.623Z,4.30
2023-03-19T09:24:33.531Z,3.92
2023-03-19T09:25:37.370Z,3.47
2023-03-19T09:26:41.224Z,4.55
2023-03-19T09:27:45.542Z,3.83
2023-03-19T09:28:49.323Z,4.05
2023-03-19T09:29:53.249Z,3.80
2023-03-19T09:30:57.307Z,3.72
2023-03-19T09:32:01.130Z,3.20
2023-03-19T09:33:06.714Z,3.80
2023-03-19T09:34:11.228Z,4.35
2023-03-19T09:35:14.970Z,3.95
2023-03-19T09:36:18.644Z,3.85
2023-03-19T09:37:22.508Z,4.07
2023-03-19T09:38:26.986Z,3.42
2023-03-19T09:39:30.965Z,4.00
2023-03-19T09:41:15.647Z,3.83
2023-03-19T09:42:46.147Z,3.85
2023-03-19T09:44:30.298Z,3.90
2023-03-19T09:45:35.460Z,3.85
2023-03-19T09:46:56.873Z,3.83
2023-03-19T09:48:14.008Z,4.22
2023-03-19T09:49:23.584Z,4.43
2023-03-19T09:50:32.745Z,4.30
2023-03-19T09:51:50.396Z,3.70
2023-03-19T09:53:39.574Z,3.30
2023-03-19T09:54:52.734Z,3.80
2023-03-19T09:56:00.746Z,3.50
2023-03-19T09:57:05.036Z,3.42
2023-03-19T09:58:21.986Z,3.33
2023-03-19T09:59:28.894Z,3.15
2023-03-19T10:00:39.526Z,3.75
2023-03-19T10:02:15.410Z,3.90
2023-03-19T10:03:33.734Z,3.65
2023-03-19T10:04:59.247Z,3.53
2023-03-19T10:06:35.601Z,2.88
2023-03-19T10:08:14.548Z,3.30
2023-03-19T10:09:43.956Z,3.33
2023-03-19T10:10:56.387Z,2.95
2023-03-19T10:12:43.827Z,3.08
2023-03-19T10:14:29.189Z,3.33
2023-03-19T10:15:38.138Z,4.03
2023-03-19T10:16:48.539Z,4.70
2023-03-19T10:18:05.428Z,3.10
2023-03-19T10:19:16.443Z,2.92
2023-03-19T10:20:54.578Z,3.35
2023-03-19T10:22:08.613Z,3.20
2023-03-19T10:23:42.270Z,3.47
2023-03-19T10:24:48.881Z,2.95
2023-03-19T10:26:00.483Z,3.30
2023-03-19T10:27:23.963Z,3.60
2023-03-19T10:28:30.486Z,3.47
2023-03-19T10:29:35.776Z,3.28
2023-03-19T10:30:50.257Z,3.03
2023-03-19T10:32:19.728Z,3.50
2023-03-19T10:33:29.069Z,4.38
2023-03-19T10:34:42.268Z,3.50
2023-03-19T10:35:53.454Z,4.93
2023-03-19T10:37:17.151Z,3.67
2023-03-19T10:38:26.534Z,3.75
2023-03-19T10:39:38.155Z,3.30
2023-03-19T10:41:02.532Z,3.63
2023-03-19T10:42:43.100Z,5.32
2023-03-19T10:44:29.827Z,4.50
2023-03-19T10:45:38.747Z,3.38
2023-03-19T10:46:42.968Z,3.20
2023-03-19T10:47:47.081Z,4.20
2023-03-19T10:48:54.456Z,3.70
2023-03-19T10:49:58.298Z,2.92
2023-03-19T10:51:06.256Z,3.47
2023-03-19T10:52:37.863Z,2.92
2023-03-19T10:53:41.877Z,2.83
2023-03-19T10:54:46.659Z,2.42
2023-03-19T10:56:17.276Z,3.05
2023-03-19T10:57:27.695Z,2.30
2023-03-19T10:58:35.997Z,2.65
2023-03-19T10:59:39.711Z,3.05
2023-03-19T11:00:48.392Z,3.55
2023-03-19T11:02:16.299Z,2.58
2023-03-19T11:03:49.513Z,2.58
2023-03-19T11:05:19.440Z,2.80
2023-03-19T11:06:38.785Z,2.88
2023-03-19T11:07:43.013Z,2.88
2023-03-19T11:08:59.271Z,2.40
2023-03-19T11:10:03.691Z,3.60
2023-03-19T11:11:23.029Z,2.08
2023-03-19T11:12:35.390Z,2.75
2023-03-19T11:13:39.447Z,3.22
2023-03-19T11:14:46.518Z,2.85
2023-03-19T11:15:52.349Z,2.75
2023-03-19T11:17:27.624Z,3.35
2023-03-19T11:18:40.452Z,2.75
2023-03-19T11:19:58.937Z,2.50
2023-03-19T11:21:21.746Z,1.88
2023-03-19T11:22:37.772Z,2.22
2023-03-19T11:23:42.893Z,2.10
2023-03-19T11:24:56.761Z,2.45
2023-03-19T11:26:04.008Z,2.70
2023-03-19T11:27:12.155Z,2.05
2023-03-19T11:28:21.550Z,2.10
2023-03-19T11:29:29.133Z,2.72
2023-03-19T11:31:03.743Z,2.70
2023-03-19T11:32:29.054Z,2.28
2023-03-19T11:33:47.603Z,1.90
2023-03-19T11:35:16.165Z,2.08
2023-03-19T11:37:00.976Z,1.70
2023-03-19T11:38:16.278Z,1.58
2023-03-19T11:39:48.942Z,1.90
2023-03-19T11:41:12.104Z,1.80
2023-03-19T11:42:45.482Z,2.08
2023-03-19T11:44:35.722Z,1.80
2023-03-19T11:46:04.313Z,2.30
2023-03-19T11:47:27.498Z,1.67
2023-03-19T11:49:08.258Z,1.67
2023-03-19T11:50:18.652Z,1.85
2023-03-19T11:52:04.593Z,2.00
2023-03-19T11:53:48.424Z,1.63
2023-03-19T11:55:17.639Z,1.70
2023-03-19T11:56:39.994Z,1.70
2023-03-19T11:58:03.978Z,1.70
2023-03-19T11:59:13.189Z,1.50
2023-03-19T12:00:29.868Z,2.22
2023-03-19T12:02:07.767Z,2.08
2023-03-19T12:03:53.778Z,2.20
2023-03-19T12:05:26.850Z,2.25
2023-03-19T12:06:49.686Z,2.42
2023-03-19T12:08:42.322Z,2.20
2023-03-19T12:10:37.087Z,2.15
2023-03-19T12:12:27.604Z,2.05
2023-03-19T12:14:00.650Z,2.38
2023-03-19T12:15:54.733Z,2.65
2023-03-19T12:17:23.284Z,2.20
2023-03-19T12:19:33.046Z,1.80
2023-03-19T12:21:04.122Z,2.40
2023-03-19T12:22:43.504Z,2.40
2023-03-19T12:24:44.596Z,2.83
2023-03-19T12:26:05.347Z,1.67
2023-03-19T12:27:28.115Z,2.20
2023-03-19T12:29:00.317Z,1.98
2023-03-19T12:30:22.481Z,2.28
2023-03-19T12:32:16.010Z,2.65
2023-03-19T12:34:10.207Z,1.85
2023-03-19T12:35:31.001Z,2.00
2023-03-19T12:36:45.768Z,1.95
2023-03-19T12:38:20.492Z,2.08
2023-03-19T12:39:35.706Z,1.67
2023-03-19T12:40:54.649Z,2.42
2023-03-19T12:42:02.778Z,1.75
2023-03-19T12:43:17.858Z,2.55
2023-03-19T12:44:24.349Z,2.65
2023-03-19T12:45:42.756Z,2.47
2023-03-19T12:47:17.464Z,2.00
2023-03-19T12:48:33.116Z,1.65
2023-03-19T12:49:55.006Z,2.65
2023-03-19T12:51:09.650Z,3.03
2023-03-19T12:52:35.954Z,2.08
2023-03-19T12:54:05.827Z,2.15
2023-03-19T12:55:43.060Z,1.88
2023-03-19T12:57:14.159Z,2.80
2023-03-19T12:58:51.234Z,1.73
2023-03-19T13:00:20.376Z,1.98
2023-03-19T13:01:35.279Z,2.20
2023-03-19T13:03:03.547Z,1.77
2023-03-19T13:04:21.768Z,1.92
2023-03-19T13:05:47.214Z,1.83
2023-03-19T13:07:07.658Z,1.98
2023-03-19T13:08:28.653Z,1.92
2023-03-19T13:09:57.873Z,1.55
2023-03-19T13:11:12.792Z,2.20
2023-03-19T13:12:25.424Z,2.25
2023-03-19T13:14:09.654Z,2.33
2023-03-19T13:15:48.215Z,2.25
2023-03-19T13:17:30.402Z,1.75
2023-03-19T13:18:56.338Z,2.15
2023-03-19T13:20:13.804Z,2.42
2023-03-19T13:21:27.375Z,2.35
2023-03-19T13:22:37.888Z,2.53
2023-03-19T13:23:46.635Z,2.08
2023-03-19T13:24:53.512Z,2.15
2023-03-19T13:26:00.790Z,2.50
2023-03-19T13:27:08.472Z,2.72
2023-03-19T13:28:28.347Z,2.25
2023-03-19T13:29:37.042Z,2.83
2023-03-19T13:31:20.802Z,2.08
2023-03-19T13:32:39.594Z,2.22
2023-03-19T13:33:55.923Z,2.75
2023-03-19T13:35:53.233Z,1.90
2023-03-19T13:37:18.908Z,1.88
2023-03-19T13:38:51.049Z,2.10
2023-03-19T13:39:55.469Z,2.22
2023-03-19T13:41:32.984Z,2.42
2023-03-19T13:42:43.322Z,2.00
2023-03-19T13:43:54.883Z,1.95
2023-03-19T13:45:18.923Z,2.85
2023-03-19T13:46:39.936Z,2.05
2023-03-19T13:47:44.768Z,2.53
2023-03-19T13:48:53.784Z,2.17
2023-03-19T13:50:11.816Z,1.92
2023-03-19T13:51:19.125Z,2.38
2023-03-19T13:52:25.970Z,2.53
2023-03-19T13:53:29.627Z,1.95
2023-03-19T13:54:38.735Z,2.10
2023-03-19T13:55:59.748Z,2.00
2023-03-19T13:57:20.724Z,2.30
2023-03-19T13:58:47.693Z,2.45
2023-03-19T13:59:52.423Z,1.88
2023-03-19T14:00:58.977Z,2.88
2023-03-19T14:02:27.141Z,2.55
2023-03-19T14:03:40.959Z,2.13
2023-03-19T14:05:07.240Z,2.50
2023-03-19T14:06:37.376Z,2.55
2023-03-19T14:07:46.202Z,2.08
2023-03-19T14:08:51.917Z,1.80
2023-03-19T14:10:00.190Z,2.05
2023-03-19T14:11:06.114Z,1.80
2023-03-19T14:12:21.764Z,2.22
2023-03-19T14:13:43.741Z,2.53
2023-03-19T14:14:55.080Z,2.15
2023-03-19T14:16:12.030Z,2.10
2023-03-19T14:17:25.098Z,1.90
2023-03-19T14:18:31.996Z,1.90
2023-03-19T14:19:43.095Z,1.88
2023-03-19T14:21:12.800Z,1.50
2023-03-19T14:22:56.757Z,1.83
2023-03-19T14:26:18.092Z,2.00
2023-03-19T14:27:33.763Z,1.90
2023-03-19T14:29:05.783Z,1.55
2023-03-19T14:30:22.413Z,1.90
2023-03-19T14:31:43.419Z,1.77
2023-03-19T14:32:51.418Z,2.38
2023-03-19T14:34:21.215Z,2.15
2023-03-19T14:35:27.183Z,2.25
2023-03-19T14:36:36.573Z,2.13
2023-03-19T14:37:46.821Z,2.42
2023-03-19T14:38:58.376Z,1.90
2023-03-19T14:40:21.543Z,2.05
2023-03-19T14:41:33.316Z,2.17
2023-03-19T14:43:14.010Z,2.40
2023-03-19T14:45:20.199Z,1.98
2023-03-19T14:47:02.356Z,2.33
2023-03-19T14:48:38.611Z,1.60
2023-03-19T14:50:19.740Z,1.52
2023-03-19T14:51:29.204Z,1.83
2023-03-19T14:52:40.838Z,1.52
2023-03-19T14:53:59.213Z,2.33
2023-03-19T14:55:13.142Z,2.03
2023-03-19T14:56:36.987Z,2.45
2023-03-19T14:57:40.554Z,1.70
2023-03-19T14:58:55.824Z,1.70
2023-03-19T14:59:59.980Z,2.28
2023-03-19T15:01:08.104Z,1.75
2023-03-19T15:02:39.389Z,1.85
2023-03-19T15:03:43.329Z,1.92
2023-03-19T15:04:49.581Z,1.70
2023-03-19T15:06:02.431Z,2.03
2023-03-19T15:07:19.853Z,1.48
2023-03-19T15:08:26.699Z,2.22
2023-03-19T15:09:33.920Z,1.85
2023-03-19T15:11:16.262Z,2.78
2023-03-19T15:13:09.616Z,2.03
2023-03-19T15:14:48.967Z,1.75
2023-03-19T15:16:13.514Z,1.98
2023-03-19T15:17:29.051Z,1.63
2023-03-19T15:18:33.308Z,2.38
2023-03-19T15:19:40.810Z,2.38
2023-03-19T15:20:51.047Z,2.00
2023-03-19T15:22:16.796Z,2.17
2023-03-19T15:23:28.031Z,1.83
2023-03-19T15:24:32.998Z,2.85
2023-03-19T15:25:50.916Z,2.20
2023-03-19T15:26:55.559Z,1.65
2023-03-19T15:28:15.849Z,1.75
2023-03-19T15:29:37.799Z,1.70
2023-03-19T15:30:53.929Z,1.98
2023-03-19T15:32:07.550Z,1.83
2023-03-19T15:33:41.391Z,1.98
2023-03-19T15:34:46.837Z,2.83
2023-03-19T15:35:53.394Z,1.50
2023-03-19T15:37:14.249Z,2.08
2023-03-19T15:38:19.221Z,1.90
2023-03-19T15:39:28.581Z,2.00